createdAt,value
2023-02-19T00:00:44.721Z,10.61
2023-02-19T00:01:44.720Z,10.56
2023-02-19T00:02:44.722Z,10.61
2023-02-19T00:03:44.813Z,10.56
2023-02-19T00:04:44.770Z,10.63
2023-02-19T00:05:44.745Z,10.54
2023-02-19T00:06:44.745Z,10.56
2023-02-19T00:07:44.752Z,10.53
2023-02-19T00:08:44.755Z,10.59
2023-02-19T00:09:44.757Z,10.56
2023-02-19T00:10:44.756Z,10.46
2023-02-19T00:11:44.770Z,10.48
2023-02-19T00:12:44.773Z,10.49
2023-02-19T00:13:44.779Z,10.56
2023-02-19T00:14:44.780Z,10.49
2023-02-19T00:15:44.825Z,10.53
2023-02-19T00:16:44.804Z,10.51
2023-02-19T00:17:44.790Z,10.44
2023-02-19T00:18:44.793Z,10.53
2023-02-19T00:19:44.834Z,10.49
2023-02-19T00:20:44.804Z,10.53
2023-02-19T00:21:44.812Z,10.49
2023-02-19T00:22:44.813Z,10.46
2023-02-19T00:23:44.823Z,10.49
2023-02-19T00:24:44.825Z,10.49
2023-02-19T00:25:44.824Z,10.53
2023-02-19T00:26:44.839Z,10.51
2023-02-19T00:27:44.843Z,10.51
2023-02-19T00:28:44.847Z,10.48
2023-02-19T00:29:44.868Z,10.44
2023-02-19T00:30:44.906Z,10.46
2023-02-19T00:31:44.969Z,10.49
2023-02-19T00:32:44.868Z,10.41
2023-02-19T00:33:44.864Z,10.46
2023-02-19T00:34:44.870Z,10.49
2023-02-19T00:35:44.909Z,10.49
2023-02-19T00:36:44.910Z,10.51
2023-02-19T00:37:44.896Z,10.56
2023-02-19T00:38:44.907Z,10.57
2023-02-19T00:39:44.902Z,10.51
2023-02-19T00:40:44.905Z,10.51
2023-02-19T00:41:44.914Z,10.54
2023-02-19T00:42:44.914Z,10.61
2023-02-19T00:43:44.920Z,10.60
2023-02-19T00:44:44.924Z,10.69
2023-02-19T00:45:44.931Z,10.61
2023-02-19T00:46:44.936Z,10.64
2023-02-19T00:47:44.932Z,10.67
2023-02-19T00:48:44.945Z,10.67
2023-02-19T00:49:44.951Z,10.69
2023-02-19T00:50:44.952Z,10.64
2023-02-19T00:51:44.984Z,10.71
2023-02-19T00:52:44.956Z,10.72
2023-02-19T00:53:44.969Z,10.71
2023-02-19T00:54:44.971Z,10.72
2023-02-19T00:55:44.996Z,10.78
2023-02-19T00:56:44.978Z,10.79
2023-02-19T00:57:45.004Z,10.76
2023-02-19T00:58:45.000Z,10.84
2023-02-19T00:59:45.005Z,10.78
2023-02-19T01:00:45.004Z,10.75
2023-02-19T01:01:45.143Z,10.74
2023-02-19T01:02:45.007Z,10.81
2023-02-19T01:03:45.023Z,10.78
2023-02-19T01:04:45.045Z,10.71
2023-02-19T01:05:45.024Z,10.74
2023-02-19T01:06:45.026Z,10.75
2023-02-19T01:07:45.049Z,10.71
2023-02-19T01:08:45.031Z,10.76
2023-02-19T01:09:45.035Z,10.76
2023-02-19T01:10:45.047Z,10.75
2023-02-19T01:11:45.043Z,10.74
2023-02-19T01:12:45.067Z,10.74
2023-02-19T01:13:45.057Z,10.72
2023-02-19T01:14:45.065Z,10.76
2023-02-19T01:15:45.141Z,10.74
2023-02-19T01:16:45.068Z,10.75
2023-02-19T01:17:45.081Z,10.75
2023-02-19T01:18:45.089Z,10.67
2023-02-19T01:19:45.085Z,10.75
2023-02-19T01:20:45.094Z,10.61
2023-02-19T01:21:45.100Z,10.64
2023-02-19T01:22:45.107Z,10.69
2023-02-19T01:23:45.123Z,10.53
2023-02-19T01:24:45.107Z,10.49
2023-02-19T01:25:45.121Z,10.48
2023-02-19T01:26:45.121Z,10.46
2023-02-19T01:27:45.124Z,10.44
2023-02-19T01:28:45.126Z,10.42
2023-02-19T01:29:45.132Z,10.48
2023-02-19T01:30:45.137Z,10.41
2023-02-19T01:31:45.249Z,10.40
2023-02-19T01:32:45.150Z,10.40
2023-02-19T01:33:45.158Z,10.31
2023-02-19T01:34:45.168Z,10.40
2023-02-19T01:35:45.369Z,10.34
2023-02-19T01:36:45.166Z,10.26
2023-02-19T01:37:45.170Z,10.33
2023-02-19T01:38:45.187Z,10.33
2023-02-19T01:39:45.203Z,10.38
2023-02-19T01:40:45.188Z,10.20
2023-02-19T01:41:45.195Z,10.33
2023-02-19T01:42:45.198Z,10.31
2023-02-19T01:43:45.210Z,10.33
2023-02-19T01:44:45.207Z,10.31
2023-02-19T01:45:45.211Z,10.26
2023-02-19T01:46:45.266Z,10.30
2023-02-19T01:47:45.223Z,10.31
2023-02-19T01:48:45.235Z,10.19
2023-02-19T01:49:45.240Z,10.37
2023-02-19T01:50:45.249Z,10.26
2023-02-19T01:51:45.256Z,10.28
2023-02-19T01:52:45.255Z,10.35
2023-02-19T01:53:45.251Z,10.31
2023-02-19T01:54:45.255Z,10.33
2023-02-19T01:55:45.289Z,10.28
2023-02-19T01:56:45.265Z,10.31
2023-02-19T01:57:45.276Z,10.40
2023-02-19T01:58:45.281Z,10.34
2023-02-19T01:59:45.287Z,10.30
2023-02-19T02:00:45.329Z,10.37
2023-02-19T02:01:45.355Z,10.34
2023-02-19T02:02:45.308Z,10.30
2023-02-19T02:03:45.306Z,10.26
2023-02-19T02:04:45.320Z,10.17
2023-02-19T02:05:45.319Z,10.17
2023-02-19T02:06:45.333Z,10.28
2023-02-19T02:07:45.332Z,10.20
2023-02-19T02:08:45.330Z,10.19
2023-02-19T02:09:45.351Z,10.15
2023-02-19T02:10:45.351Z,10.15
2023-02-19T02:11:45.366Z,10.12
2023-02-19T02:12:45.349Z,10.09
2023-02-19T02:13:45.355Z,10.22
2023-02-19T02:14:45.360Z,10.17
2023-02-19T02:15:45.357Z,10.23
2023-02-19T02:16:45.370Z,10.22
2023-02-19T02:17:45.375Z,10.16
2023-02-19T02:18:45.381Z,10.19
2023-02-19T02:19:45.377Z,10.20
2023-02-19T02:20:45.395Z,10.13
2023-02-19T02:21:45.395Z,10.16
2023-02-19T02:22:45.400Z,10.04
2023-02-19T02:23:45.397Z,9.99
2023-02-19T02:24:45.403Z,9.98
2023-02-19T02:25:45.416Z,9.95
2023-02-19T02:26:45.418Z,9.97
2023-02-19T02:27:45.469Z,9.98
2023-02-19T02:28:45.421Z,9.82
2023-02-19T02:29:45.438Z,9.99
2023-02-19T02:30:45.436Z,9.95
2023-02-19T02:31:45.610Z,9.87
2023-02-19T02:32:45.447Z,9.84
2023-02-19T02:33:45.446Z,9.84
2023-02-19T02:34:45.449Z,9.76
2023-02-19T02:35:45.464Z,9.87
2023-02-19T02:36:45.464Z,9.83
2023-02-19T02:37:45.464Z,9.83
2023-02-19T02:38:45.473Z,9.92
2023-02-19T02:39:45.481Z,10.01
2023-02-19T02:40:45.483Z,9.92
2023-02-19T02:41:45.492Z,10.05
2023-02-19T02:42:45.504Z,9.98
2023-02-19T02:43:45.490Z,10.05
2023-02-19T02:44:45.493Z,9.92
2023-02-19T02:45:45.534Z,9.97
2023-02-19T02:46:45.501Z,9.92
2023-02-19T02:47:45.509Z,9.83
2023-02-19T02:48:45.522Z,9.82
2023-02-19T02:49:45.523Z,9.82
2023-02-19T02:50:45.522Z,9.76
2023-02-19T02:51:45.528Z,9.83
2023-02-19T02:52:45.537Z,9.76
2023-02-19T02:53:45.533Z,9.69
2023-02-19T02:54:45.561Z,9.72
2023-02-19T02:55:45.546Z,9.74
2023-02-19T02:56:45.558Z,9.69
2023-02-19T02:57:45.551Z,9.69
2023-02-19T02:58:45.558Z,9.73
2023-02-19T02:59:45.560Z,9.74
2023-02-19T03:00:45.584Z,9.76
2023-02-19T03:01:45.584Z,9.72
2023-02-19T03:02:45.583Z,9.76
2023-02-19T03:03:45.586Z,9.79
2023-02-19T03:04:45.584Z,9.76
2023-02-19T03:05:45.590Z,9.73
2023-02-19T03:06:45.592Z,9.68
2023-02-19T03:07:45.607Z,9.79
2023-02-19T03:08:45.611Z,9.73
2023-02-19T03:09:45.623Z,9.68
2023-02-19T03:10:45.613Z,9.73
2023-02-19T03:11:45.625Z,9.77
2023-02-19T03:12:45.622Z,9.68
2023-02-19T03:13:45.634Z,9.66
2023-02-19T03:14:45.638Z,9.64
2023-02-19T03:15:45.643Z,9.68
2023-02-19T03:16:45.672Z,9.66
2023-02-19T03:17:45.652Z,9.65
2023-02-19T03:18:45.656Z,9.76
2023-02-19T03:19:45.666Z,9.72
2023-02-19T03:20:45.676Z,9.72
2023-02-19T03:21:45.660Z,9.65
2023-02-19T03:22:45.669Z,9.72
2023-02-19T03:23:45.676Z,9.68
2023-02-19T03:24:45.694Z,9.69
2023-02-19T03:25:45.686Z,9.74
2023-02-19T03:26:45.693Z,9.72
2023-02-19T03:27:45.702Z,9.64
2023-02-19T03:28:45.701Z,9.65
2023-02-19T03:29:45.705Z,9.61
2023-02-19T03:30:45.708Z,9.51
2023-02-19T03:31:45.892Z,9.41
2023-02-19T03:32:45.715Z,9.44
2023-02-19T03:33:45.765Z,9.36
2023-02-19T03:34:45.748Z,9.47
2023-02-19T03:35:45.730Z,9.36
2023-02-19T03:36:45.737Z,9.41
2023-02-19T03:37:45.740Z,9.37
2023-02-19T03:38:45.744Z,9.37
2023-02-19T03:39:45.744Z,9.39
2023-02-19T03:40:45.751Z,9.41
2023-02-19T03:41:45.753Z,9.32
2023-02-19T03:42:45.753Z,9.26
2023-02-19T03:43:45.760Z,9.19
2023-02-19T03:44:45.764Z,9.10
2023-02-19T03:45:45.808Z,9.06
2023-02-19T03:46:45.782Z,8.87
2023-02-19T03:47:45.780Z,8.85
2023-02-19T03:48:45.791Z,8.76
2023-02-19T03:49:47.920Z,8.71
2023-02-19T03:50:45.789Z,8.66
2023-02-19T03:51:45.805Z,8.61
2023-02-19T03:52:45.805Z,8.61
2023-02-19T03:53:45.814Z,8.58
2023-02-19T03:54:45.808Z,8.60
2023-02-19T03:55:45.848Z,8.67
2023-02-19T03:56:45.815Z,8.70
2023-02-19T03:58:45.829Z,8.58
2023-02-19T03:59:45.834Z,8.64
2023-02-19T04:00:45.837Z,8.61
2023-02-19T04:01:45.847Z,8.60
2023-02-19T04:02:45.852Z,8.61
2023-02-19T04:04:45.882Z,8.49
2023-02-19T04:05:45.858Z,8.53
2023-02-19T04:06:45.867Z,8.53
2023-02-19T04:07:45.865Z,8.52
2023-02-19T04:08:45.875Z,8.42
2023-02-19T04:09:45.875Z,8.49
2023-02-19T04:10:45.881Z,8.38
2023-02-19T04:11:45.929Z,8.46
2023-02-19T04:12:45.894Z,8.48
2023-02-19T04:13:45.905Z,8.38
2023-02-19T04:14:45.895Z,8.41
2023-02-19T04:15:45.897Z,8.36
2023-02-19T04:16:45.960Z,8.38
2023-02-19T04:17:45.913Z,8.33
2023-02-19T04:18:45.915Z,8.37
2023-02-19T04:19:45.923Z,8.38
2023-02-19T04:20:45.921Z,8.38
2023-02-19T04:21:45.929Z,8.41
2023-02-19T04:22:45.926Z,8.34
2023-02-19T04:23:45.959Z,8.30
2023-02-19T04:24:45.934Z,8.24
2023-02-19T04:25:45.944Z,8.15
2023-02-19T04:26:45.948Z,8.18
2023-02-19T04:27:45.942Z,8.08
2023-02-19T04:28:45.956Z,8.03
2023-02-19T04:29:45.952Z,8.06
2023-02-19T04:30:45.987Z,8.01
2023-02-19T04:31:45.990Z,8.01
2023-02-19T04:32:45.962Z,7.98
2023-02-19T04:33:45.973Z,8.00
2023-02-19T04:34:45.969Z,8.00
2023-02-19T04:35:45.970Z,7.95
2023-02-19T04:36:45.987Z,7.88
2023-02-19T04:37:45.986Z,7.87
2023-02-19T04:38:45.990Z,7.72
2023-02-19T04:39:45.996Z,7.76
2023-02-19T04:40:45.988Z,7.61
2023-02-19T04:41:46.003Z,7.60
2023-02-19T04:42:46.002Z,7.61
2023-02-19T04:43:46.006Z,7.58
2023-02-19T04:44:46.000Z,7.60
2023-02-19T04:45:46.039Z,7.63
2023-02-19T04:46:46.019Z,7.47
2023-02-19T04:47:46.011Z,7.51
2023-02-19T04:48:46.022Z,7.45
2023-02-19T04:49:46.036Z,7.45
2023-02-19T04:50:46.043Z,7.43
2023-02-19T04:51:46.032Z,7.45
2023-02-19T04:52:46.037Z,7.43
2023-02-19T04:53:46.039Z,7.32
2023-02-19T04:54:46.036Z,7.29
2023-02-19T04:55:46.047Z,7.36
2023-02-19T04:56:46.050Z,7.36
2023-02-19T04:57:46.054Z,7.29
2023-02-19T04:58:46.063Z,7.31
2023-02-19T04:59:46.053Z,7.28
2023-02-19T05:00:46.064Z,7.24
2023-02-19T05:01:46.083Z,7.18
2023-02-19T05:02:46.063Z,7.23
2023-02-19T05:03:46.072Z,7.17
2023-02-19T05:04:46.076Z,7.18
2023-02-19T05:05:46.074Z,7.23
2023-02-19T05:06:46.083Z,7.28
2023-02-19T05:07:46.091Z,7.31
2023-02-19T05:08:46.089Z,7.23
2023-02-19T05:09:46.099Z,7.24
2023-02-19T05:10:46.090Z,7.21
2023-02-19T05:11:46.097Z,7.25
2023-02-19T05:12:46.097Z,7.15
2023-02-19T05:13:46.169Z,7.23
2023-02-19T05:14:46.104Z,7.10
2023-02-19T05:15:46.134Z,7.10
2023-02-19T05:16:46.108Z,7.05
2023-02-19T05:17:46.124Z,7.13
2023-02-19T05:18:46.156Z,7.02
2023-02-19T05:19:46.126Z,7.02
2023-02-19T05:20:46.121Z,7.10
2023-02-19T05:21:46.137Z,7.06
2023-02-19T05:22:46.136Z,7.06
2023-02-19T05:23:46.130Z,7.02
2023-02-19T05:24:46.147Z,7.05
2023-02-19T05:25:46.149Z,7.02
2023-02-19T05:26:46.148Z,7.07
2023-02-19T05:27:46.152Z,7.13
2023-02-19T05:28:46.153Z,7.10
2023-02-19T05:29:46.158Z,7.00
2023-02-19T05:30:46.178Z,6.97
2023-02-19T05:31:46.260Z,6.95
2023-02-19T05:32:46.168Z,6.85
2023-02-19T05:33:46.167Z,6.84
2023-02-19T05:34:46.174Z,6.92
2023-02-19T05:35:46.168Z,6.93
2023-02-19T05:36:46.174Z,6.87
2023-02-19T05:37:46.184Z,6.95
2023-02-19T05:38:46.194Z,6.93
2023-02-19T05:39:46.181Z,6.88
2023-02-19T05:40:46.185Z,6.96
2023-02-19T05:41:46.199Z,6.87
2023-02-19T05:42:46.196Z,6.95
2023-02-19T05:43:46.206Z,6.89
2023-02-19T05:44:46.205Z,6.89
2023-02-19T05:45:46.200Z,6.96
2023-02-19T05:46:46.242Z,7.02
2023-02-19T05:47:46.216Z,7.00
2023-02-19T05:48:46.222Z,7.06
2023-02-19T05:49:46.221Z,7.02
2023-02-19T05:50:46.215Z,7.03
2023-02-19T05:51:46.235Z,7.03
2023-02-19T05:52:46.243Z,6.97
2023-02-19T05:53:46.228Z,6.95
2023-02-19T05:54:46.234Z,6.93
2023-02-19T05:55:46.234Z,6.88
2023-02-19T05:56:46.244Z,6.87
2023-02-19T05:57:46.246Z,6.92
2023-02-19T05:58:46.241Z,6.89
2023-02-19T05:59:46.247Z,7.03
2023-02-19T06:00:46.263Z,6.96
2023-02-19T06:01:46.250Z,6.85
2023-02-19T06:02:46.317Z,6.88
2023-02-19T06:03:46.335Z,6.87
2023-02-19T06:04:46.272Z,6.87
2023-02-19T06:05:46.263Z,6.89
2023-02-19T06:06:46.274Z,6.95
2023-02-19T06:07:46.270Z,6.88
2023-02-19T06:08:46.306Z,6.93
2023-02-19T06:09:46.283Z,6.87
2023-02-19T06:10:46.294Z,6.92
2023-02-19T06:11:46.295Z,6.89
2023-02-19T06:12:46.302Z,6.92
2023-02-19T06:13:46.295Z,6.93
2023-02-19T06:14:46.300Z,6.97
2023-02-19T06:15:46.333Z,6.87
2023-02-19T06:16:46.311Z,6.74
2023-02-19T06:17:46.302Z,6.93
2023-02-19T06:18:46.311Z,6.95
2023-02-19T06:19:46.308Z,6.85
2023-02-19T06:20:46.317Z,6.85
2023-02-19T06:21:46.326Z,6.75
2023-02-19T06:22:46.322Z,6.78
2023-02-19T06:23:46.321Z,6.81
2023-02-19T06:24:46.328Z,6.70
2023-02-19T06:25:46.335Z,6.79
2023-02-19T06:26:46.327Z,6.77
2023-02-19T06:27:46.341Z,6.70
2023-02-19T06:28:46.342Z,6.69
2023-02-19T06:29:46.346Z,6.52
2023-02-19T06:30:46.341Z,6.63
2023-02-19T06:31:46.480Z,6.64
2023-02-19T06:32:46.371Z,6.63
2023-02-19T06:33:46.361Z,6.60
2023-02-19T06:34:46.368Z,6.62
2023-02-19T06:35:46.361Z,6.62
2023-02-19T06:36:46.365Z,6.62
2023-02-19T06:37:46.368Z,6.66
2023-02-19T06:38:46.377Z,6.57
2023-02-19T06:39:46.378Z,6.64
2023-02-19T06:40:46.378Z,6.64
2023-02-19T06:41:46.378Z,6.54
2023-02-19T06:42:46.391Z,6.59
2023-02-19T06:43:46.409Z,6.64
2023-02-19T06:44:46.397Z,6.74
2023-02-19T06:45:46.391Z,6.72
2023-02-19T06:46:46.462Z,6.67
2023-02-19T06:47:46.398Z,6.78
2023-02-19T06:48:46.411Z,6.74
2023-02-19T06:49:46.411Z,6.70
2023-02-19T06:50:46.415Z,6.69
2023-02-19T06:51:46.418Z,6.60
2023-02-19T06:52:46.419Z,6.60
2023-02-19T06:53:46.434Z,6.64
2023-02-19T06:54:46.436Z,6.63
2023-02-19T06:55:46.430Z,6.62
2023-02-19T06:56:47.179Z,6.72
2023-02-19T06:57:46.430Z,6.54
2023-02-19T06:58:46.438Z,6.66
2023-02-19T06:59:46.446Z,6.74
2023-02-19T07:00:46.477Z,6.81
2023-02-19T07:01:46.447Z,6.72
2023-02-19T07:02:46.454Z,6.69
2023-02-19T07:03:46.481Z,6.72
2023-02-19T07:04:46.451Z,6.67
2023-02-19T07:05:46.458Z,6.67
2023-02-19T07:06:46.451Z,6.63
2023-02-19T07:07:46.464Z,6.60
2023-02-19T07:08:46.458Z,6.59
2023-02-19T07:09:46.464Z,6.59
2023-02-19T07:10:46.465Z,6.57
2023-02-19T07:11:46.467Z,6.62
2023-02-19T07:12:46.474Z,6.57
2023-02-19T07:13:46.485Z,6.62
2023-02-19T07:14:46.478Z,6.60
2023-02-19T07:15:46.489Z,6.72
2023-02-19T07:16:46.480Z,6.63
2023-02-19T07:17:46.491Z,6.70
2023-02-19T07:18:46.492Z,6.74
2023-02-19T07:19:46.496Z,6.69
2023-02-19T07:20:46.499Z,6.72
2023-02-19T07:21:46.504Z,6.81
2023-02-19T07:22:46.496Z,6.81
2023-02-19T07:23:46.508Z,6.74
2023-02-19T07:24:47.934Z,6.75
2023-02-19T07:25:46.511Z,6.75
2023-02-19T07:26:46.513Z,6.81
2023-02-19T07:27:46.524Z,6.78
2023-02-19T07:28:46.526Z,6.85
2023-02-19T07:29:46.522Z,6.82
2023-02-19T07:30:46.577Z,6.87
2023-02-19T07:31:46.575Z,6.75
2023-02-19T07:32:46.537Z,6.74
2023-02-19T07:33:46.546Z,6.74
2023-02-19T07:34:46.543Z,6.77
2023-02-19T07:35:46.543Z,6.79
2023-02-19T07:36:46.545Z,6.84
2023-02-19T07:37:46.559Z,6.89
2023-02-19T07:38:46.586Z,6.85
2023-02-19T07:39:46.557Z,6.84
2023-02-19T07:40:46.570Z,6.96
2023-02-19T07:41:46.561Z,6.87
2023-02-19T07:42:46.572Z,6.93
2023-02-19T07:43:46.566Z,6.93
2023-02-19T07:44:46.577Z,6.97
2023-02-19T07:45:46.622Z,7.13
2023-02-19T07:46:46.584Z,7.07
2023-02-19T07:47:46.592Z,7.13
2023-02-19T07:48:46.581Z,7.28
2023-02-19T07:49:46.588Z,7.28
2023-02-19T07:50:46.595Z,7.36
2023-02-19T07:51:46.601Z,7.40
2023-02-19T07:52:46.598Z,7.43
2023-02-19T07:53:46.612Z,7.54
2023-02-19T07:54:46.609Z,7.56
2023-02-19T07:55:46.616Z,7.58
2023-02-19T07:56:46.619Z,7.75
2023-02-19T07:57:46.616Z,7.88
2023-02-19T07:58:46.618Z,7.82
2023-02-19T07:59:46.630Z,7.93
2023-02-19T08:00:46.682Z,8.13
2023-02-19T08:01:46.635Z,8.26
2023-02-19T08:02:46.634Z,8.18
2023-02-19T08:03:48.275Z,8.20
2023-02-19T08:04:46.649Z,8.24
2023-02-19T08:05:46.652Z,8.16
2023-02-19T08:06:46.647Z,8.16
2023-02-19T08:07:46.662Z,8.13
2023-02-19T08:08:46.665Z,8.16
2023-02-19T08:09:46.663Z,8.16
2023-02-19T08:10:46.673Z,8.12
2023-02-19T08:11:46.677Z,8.12
2023-02-19T08:12:46.672Z,8.10
2023-02-19T08:13:46.682Z,8.12
2023-02-19T08:14:46.688Z,8.10
2023-02-19T08:15:46.687Z,8.01
2023-02-19T08:16:46.713Z,8.01
2023-02-19T08:17:46.696Z,8.08
2023-02-19T08:18:46.697Z,8.05
2023-02-19T08:19:46.695Z,8.05
2023-02-19T08:20:46.703Z,8.06
2023-02-19T08:21:46.712Z,8.05
2023-02-19T08:22:46.704Z,8.01
2023-02-19T08:23:46.717Z,8.08
2023-02-19T08:24:46.712Z,8.08
2023-02-19T08:25:46.726Z,8.23
2023-02-19T08:26:46.724Z,8.24
2023-02-19T08:27:46.728Z,8.34
2023-02-19T08:28:46.737Z,8.46
2023-02-19T08:29:46.741Z,8.58
2023-02-19T08:30:46.882Z,8.78
2023-02-19T08:31:46.919Z,8.89
2023-02-19T08:32:46.753Z,8.94
2023-02-19T08:33:46.749Z,8.88
2023-02-19T08:34:46.753Z,9.10
2023-02-19T08:35:46.755Z,9.25
2023-02-19T08:36:46.772Z,9.95
2023-02-19T08:37:46.787Z,10.41
2023-02-19T08:38:46.779Z,10.84
2023-02-19T08:39:46.772Z,11.48
2023-02-19T08:40:46.789Z,11.83
2023-02-19T08:41:46.798Z,12.47
2023-02-19T08:42:46.796Z,12.45
2023-02-19T08:43:46.801Z,12.72
2023-02-19T08:44:46.805Z,13.04
2023-02-19T08:45:46.845Z,13.03
2023-02-19T08:46:46.815Z,13.38
2023-02-19T08:47:46.818Z,13.57
2023-02-19T08:48:46.828Z,13.52
2023-02-19T08:49:46.830Z,13.46
2023-02-19T08:50:46.827Z,13.68
2023-02-19T08:51:46.836Z,13.71
2023-02-19T08:52:46.848Z,13.54
2023-02-19T08:53:46.858Z,13.47
2023-02-19T08:54:46.861Z,13.47
2023-02-19T08:55:46.859Z,13.54
2023-02-19T08:56:46.898Z,13.67
2023-02-19T08:57:47.345Z,13.97
2023-02-19T08:58:46.894Z,14.22
2023-02-19T08:59:46.890Z,13.97
2023-02-19T09:00:46.918Z,13.74
2023-02-19T09:01:46.957Z,13.53
2023-02-19T09:02:46.914Z,13.38
2023-02-19T09:03:46.965Z,13.37
2023-02-19T09:04:46.929Z,13.31
2023-02-19T09:05:46.969Z,13.12
2023-02-19T09:06:46.939Z,13.49
2023-02-19T09:07:46.956Z,13.95
2023-02-19T09:08:46.945Z,14.47
2023-02-19T09:09:46.952Z,15.07
2023-02-19T09:10:46.957Z,15.58
2023-02-19T09:11:49.230Z,16.10
2023-02-19T09:12:46.974Z,16.46
2023-02-19T09:13:46.982Z,16.78
2023-02-19T09:14:46.993Z,17.02
2023-02-19T09:15:47.053Z,16.89
2023-02-19T09:16:47.014Z,16.90
2023-02-19T09:17:47.022Z,16.83
2023-02-19T09:18:47.024Z,16.78
2023-02-19T09:19:48.495Z,16.68
2023-02-19T09:20:47.049Z,16.42
2023-02-19T09:21:47.061Z,16.10
2023-02-19T09:22:47.071Z,15.91
2023-02-19T09:23:47.079Z,15.90
2023-02-19T09:24:47.086Z,15.80
2023-02-19T09:25:47.093Z,15.77
2023-02-19T09:26:47.099Z,16.00
2023-02-19T09:27:47.107Z,16.04
2023-02-19T09:28:47.118Z,16.21
2023-02-19T09:29:47.133Z,16.49
2023-02-19T09:30:47.181Z,16.64
2023-02-19T09:31:47.207Z,16.90
2023-02-19T09:32:47.155Z,17.16
2023-02-19T09:33:47.172Z,17.30
2023-02-19T09:34:47.178Z,17.30
2023-02-19T09:35:47.189Z,17.34
2023-02-19T09:36:47.195Z,17.44
2023-02-19T09:37:47.217Z,17.57
2023-02-19T09:38:47.226Z,17.71
2023-02-19T09:39:47.239Z,17.86
2023-02-19T09:40:47.243Z,17.71
2023-02-19T09:42:54.845Z,17.31
2023-02-19T09:43:56.066Z,17.16
2023-02-19T09:46:25.054Z,16.83
2023-02-19T09:47:25.002Z,16.76
2023-02-19T09:49:47.679Z,16.42
2023-02-19T09:51:35.253Z,15.86
2023-02-19T09:52:35.264Z,15.58
2023-02-19T09:53:35.270Z,15.33
2023-02-19T09:54:35.293Z,15.27
2023-02-19T09:55:35.295Z,15.15
2023-02-19T09:56:35.303Z,15.09
2023-02-19T09:57:35.302Z,14.97
2023-02-19T09:58:35.321Z,14.84
2023-02-19T09:59:35.326Z,14.82
2023-02-19T10:00:35.331Z,14.78
2023-02-19T10:01:35.401Z,14.69
2023-02-19T10:02:35.356Z,14.60
2023-02-19T10:03:35.390Z,14.69
2023-02-19T10:04:35.380Z,14.94
2023-02-19T10:05:35.390Z,15.25
2023-02-19T10:06:35.393Z,15.39
2023-02-19T10:07:35.450Z,15.40
2023-02-19T10:08:35.414Z,15.83
2023-02-19T10:09:35.429Z,16.20
2023-02-19T10:10:35.439Z,16.33
2023-02-19T10:11:35.450Z,16.51
2023-02-19T10:12:35.451Z,16.43
2023-02-19T10:13:35.472Z,16.61
2023-02-19T10:14:35.479Z,16.87
2023-02-19T10:15:35.536Z,16.84
2023-02-19T10:16:35.504Z,16.79
2023-02-19T10:17:35.521Z,16.83
2023-02-19T10:18:35.517Z,16.83
2023-02-19T10:19:35.540Z,17.02
2023-02-19T10:20:35.550Z,17.29
2023-02-19T10:21:35.557Z,17.44
2023-02-19T10:22:35.572Z,17.38
2023-02-19T10:23:35.581Z,17.31
2023-02-19T10:24:38.196Z,17.19
2023-02-19T10:25:35.609Z,17.12
2023-02-19T10:26:35.617Z,16.93
2023-02-19T10:27:35.630Z,16.78
2023-02-19T10:28:35.650Z,16.38
2023-02-19T10:29:35.654Z,16.10
2023-02-19T10:30:35.828Z,15.77
2023-02-19T10:31:35.809Z,15.84
2023-02-19T10:32:35.687Z,15.94
2023-02-19T10:33:35.694Z,16.17
2023-02-19T10:34:35.720Z,16.35
2023-02-19T10:35:35.725Z,16.78
2023-02-19T10:36:35.756Z,17.08
2023-02-19T10:37:35.741Z,17.44
2023-02-19T10:38:35.762Z,17.87
2023-02-19T10:39:35.772Z,18.16
2023-02-19T10:40:35.782Z,18.52
2023-02-19T10:41:35.797Z,18.62
2023-02-19T10:42:35.802Z,18.63
2023-02-19T10:43:35.823Z,18.52
2023-02-19T10:44:35.829Z,18.52
2023-02-19T10:45:35.843Z,18.49
2023-02-19T10:46:35.951Z,18.41
2023-02-19T10:47:35.875Z,18.45
2023-02-19T10:48:35.884Z,18.47
2023-02-19T10:49:35.899Z,18.55
2023-02-19T10:50:35.922Z,18.55
2023-02-19T10:51:35.940Z,18.84
2023-02-19T10:52:35.973Z,18.93
2023-02-19T10:53:35.959Z,19.04
2023-02-19T10:54:35.989Z,19.21
2023-02-19T10:55:37.954Z,19.33
2023-02-19T10:56:36.003Z,19.36
2023-02-19T10:57:36.017Z,19.11
2023-02-19T10:58:36.034Z,18.83
2023-02-19T10:59:36.051Z,18.90
2023-02-19T11:00:36.060Z,18.99
2023-02-19T11:01:36.125Z,19.04
2023-02-19T11:02:36.085Z,19.07
2023-02-19T11:03:36.108Z,19.18
2023-02-19T11:04:36.182Z,19.27
2023-02-19T11:05:36.131Z,19.48
2023-02-19T11:06:36.142Z,19.55
2023-02-19T11:07:36.166Z,19.52
2023-02-19T11:08:36.178Z,19.44
2023-02-19T11:09:36.195Z,19.48
2023-02-19T11:10:36.260Z,19.41
2023-02-19T11:11:36.229Z,19.37
2023-02-19T11:12:36.233Z,19.36
2023-02-19T11:13:36.257Z,19.29
2023-02-19T11:14:36.265Z,19.24
2023-02-19T11:15:36.337Z,19.51
2023-02-19T11:16:36.301Z,19.34
2023-02-19T11:17:36.312Z,19.40
2023-02-19T11:18:36.404Z,19.30
2023-02-19T11:19:36.355Z,18.95
2023-02-19T11:20:36.365Z,18.86
2023-02-19T11:21:36.385Z,18.70
2023-02-19T11:22:36.388Z,18.66
2023-02-19T11:23:36.410Z,18.77
2023-02-19T11:24:36.421Z,18.68
2023-02-19T11:25:36.435Z,18.71
2023-02-19T11:26:36.461Z,18.78
2023-02-19T11:27:36.488Z,18.83
2023-02-19T11:28:36.492Z,18.92
2023-02-19T11:29:36.505Z,19.07
2023-02-19T11:30:37.193Z,19.02
2023-02-19T11:31:36.759Z,18.95
2023-02-19T11:32:36.559Z,19.00
2023-02-19T11:33:36.560Z,19.09
2023-02-19T11:34:36.586Z,19.16
2023-02-19T11:35:36.607Z,19.31
2023-02-19T11:36:36.643Z,19.19
2023-02-19T11:37:36.627Z,19.04
2023-02-19T11:38:36.660Z,19.07
2023-02-19T11:39:36.671Z,19.08
2023-02-19T11:40:36.701Z,19.04
2023-02-19T11:41:36.707Z,19.02
2023-02-19T11:42:36.709Z,18.98
2023-02-19T11:43:36.728Z,19.00
2023-02-19T11:44:36.760Z,19.04
2023-02-19T11:45:36.764Z,19.16
2023-02-19T11:46:36.823Z,19.15
2023-02-19T11:47:36.803Z,19.18
2023-02-19T11:48:36.819Z,19.24
2023-02-19T11:49:36.828Z,19.26
2023-02-19T11:50:36.851Z,19.11
2023-02-19T11:51:36.862Z,19.11
2023-02-19T11:52:36.883Z,19.04
2023-02-19T11:53:36.901Z,18.98
2023-02-19T11:54:36.915Z,18.98
2023-02-19T11:55:36.928Z,19.00
2023-02-19T11:56:36.942Z,19.00
2023-02-19T11:57:36.966Z,19.11
2023-02-19T11:58:36.974Z,19.21
2023-02-19T11:59:36.998Z,19.26
2023-02-19T12:00:37.014Z,19.54
2023-02-19T12:01:37.060Z,19.71
2023-02-19T12:02:37.048Z,19.88
2023-02-19T12:03:37.057Z,20.02
2023-02-19T12:04:37.924Z,19.86
2023-02-19T12:05:37.103Z,19.73
2023-02-19T12:06:37.120Z,19.73
2023-02-19T12:07:37.124Z,19.63
2023-02-19T12:08:37.144Z,19.52
2023-02-19T12:09:37.157Z,19.62
2023-02-19T12:10:37.185Z,19.59
2023-02-19T12:11:37.192Z,19.69
2023-02-19T12:12:37.998Z,19.67
2023-02-19T12:13:37.236Z,19.81
2023-02-19T12:55:51.420Z,16.21
2023-02-19T12:56:51.433Z,15.76
2023-02-19T12:57:51.458Z,15.55
2023-02-19T12:58:51.462Z,15.43
2023-02-19T13:02:17.464Z,14.66
2023-02-19T13:03:17.356Z,14.54
2023-02-19T13:04:17.368Z,14.54
2023-02-19T13:05:20.813Z,14.40
2023-02-19T13:06:17.743Z,14.33
2023-02-19T13:07:17.405Z,14.43
2023-02-19T13:08:17.422Z,14.48
2023-02-19T13:09:17.420Z,14.55
2023-02-19T13:10:17.435Z,14.69
2023-02-19T13:11:17.539Z,14.81
2023-02-19T13:12:17.470Z,14.81
2023-02-19T13:13:17.472Z,14.94
2023-02-19T13:14:17.488Z,15.03
2023-02-19T13:15:17.502Z,15.15
2023-02-19T13:16:18.973Z,15.09
2023-02-19T13:17:17.528Z,15.10
2023-02-19T13:18:17.540Z,14.99
2023-02-19T13:19:17.548Z,14.96
2023-02-19T13:20:17.565Z,14.85
2023-02-19T13:21:17.570Z,14.70
2023-02-19T13:22:17.594Z,14.63
2023-02-19T13:23:17.595Z,14.51
2023-02-19T13:24:17.608Z,14.54
2023-02-19T13:25:17.628Z,14.51
2023-02-19T13:26:17.641Z,14.45
2023-02-19T13:27:17.662Z,14.29
2023-02-19T13:28:17.665Z,14.32
2023-02-19T13:29:17.670Z,14.26
2023-02-19T13:30:17.695Z,14.15
2023-02-19T13:31:17.813Z,14.12
2023-02-19T13:32:17.746Z,14.08
2023-02-19T13:33:17.716Z,14.04
2023-02-19T13:34:17.735Z,13.85
2023-02-19T13:35:17.741Z,13.74
2023-02-19T13:36:17.751Z,13.60
2023-02-19T13:37:17.767Z,13.50
2023-02-19T13:38:17.774Z,13.38
2023-02-19T13:39:17.817Z,13.22
2023-02-19T13:40:18.007Z,13.23
2023-02-19T13:41:17.814Z,13.28
2023-02-19T13:42:17.827Z,13.11
2023-02-19T13:43:17.828Z,13.01
2023-02-19T13:44:17.848Z,13.00
2023-02-19T13:45:21.148Z,13.04
2023-02-19T13:46:17.876Z,13.00
2023-02-19T13:47:18.071Z,13.03
2023-02-19T13:48:18.494Z,13.11
2023-02-19T13:49:17.891Z,13.19
2023-02-19T13:50:18.722Z,13.31
2023-02-19T13:51:18.317Z,13.38
2023-02-19T13:52:19.143Z,13.44
2023-02-19T13:53:17.935Z,13.57
2023-02-19T13:54:17.943Z,13.47
2023-02-19T13:55:17.964Z,13.59